createdAt,value
2023-12-31T00:00:11.167Z,62.26
2023-12-31T00:02:38.637Z,62.15
2023-12-31T00:05:07.163Z,62.20
2023-12-31T00:07:35.152Z,61.51
2023-12-31T00:10:02.929Z,61.68
2023-12-31T00:12:29.869Z,61.28
2023-12-31T00:14:56.624Z,61.22
2023-12-31T00:17:23.496Z,61.11
2023-12-31T00:19:50.432Z,61.05
2023-12-31T00:22:17.309Z,60.72
2023-12-31T00:24:44.186Z,60.87
2023-12-31T00:27:11.013Z,60.60
2023-12-31T00:29:37.762Z,60.50
2023-12-31T00:32:04.997Z,60.84
2023-12-31T00:34:31.792Z,59.86
2023-12-31T00:36:58.785Z,59.58
2023-12-31T00:39:25.590Z,59.76
2023-12-31T00:41:52.424Z,59.97
2023-12-31T00:44:19.175Z,59.37
2023-12-31T00:46:46.017Z,59.59
2023-12-31T00:49:13.321Z,59.18
2023-12-31T00:51:41.158Z,59.13
2023-12-31T00:54:07.957Z,58.38
2023-12-31T00:56:34.756Z,58.45
2023-12-31T00:59:03.549Z,58.48
2023-12-31T01:01:32.326Z,58.44
2023-12-31T01:03:59.168Z,58.23
2023-12-31T01:06:25.963Z,57.90
2023-12-31T01:08:53.181Z,58.03
2023-12-31T01:11:20.071Z,57.59
2023-12-31T01:13:47.028Z,57.73
2023-12-31T01:16:14.362Z,57.63
2023-12-31T01:18:41.352Z,57.13
2023-12-31T01:21:08.310Z,56.88
2023-12-31T01:23:35.039Z,57.13
2023-12-31T01:26:01.864Z,56.40
2023-12-31T01:28:29.020Z,56.69
2023-12-31T01:30:55.873Z,56.57
2023-12-31T01:33:22.799Z,56.21
2023-12-31T01:35:49.631Z,56.53
2023-12-31T01:38:16.468Z,56.42
2023-12-31T01:40:53.700Z,56.43
2023-12-31T01:43:21.948Z,56.52
2023-12-31T01:45:48.853Z,56.24
2023-12-31T01:48:16.288Z,56.44
2023-12-31T01:50:43.966Z,56.69
2023-12-31T01:53:13.494Z,56.95
2023-12-31T01:55:41.113Z,56.96
2023-12-31T01:58:08.101Z,56.44
2023-12-31T02:00:35.690Z,56.50
2023-12-31T02:03:04.217Z,56.32
2023-12-31T02:05:32.788Z,55.93
2023-12-31T02:07:59.677Z,55.35
2023-12-31T02:10:26.547Z,55.26
2023-12-31T02:12:55.328Z,55.06
2023-12-31T02:15:31.701Z,55.40
2023-12-31T02:18:00.922Z,55.86
2023-12-31T02:20:30.809Z,55.38
2023-12-31T02:23:01.240Z,55.55
2023-12-31T02:25:29.515Z,55.50
2023-12-31T02:27:57.102Z,55.53
2023-12-31T02:30:25.093Z,55.21
2023-12-31T02:32:51.994Z,56.33
2023-12-31T02:35:18.791Z,56.46
2023-12-31T02:37:45.676Z,56.47
2023-12-31T02:40:13.004Z,56.17
2023-12-31T02:42:39.838Z,55.84
2023-12-31T02:45:07.159Z,56.47
2023-12-31T02:47:34.050Z,55.80
2023-12-31T02:50:01.423Z,56.19
2023-12-31T02:52:28.330Z,56.05
2023-12-31T02:54:55.937Z,55.96
2023-12-31T02:57:23.663Z,55.77
2023-12-31T02:59:50.449Z,55.49
2023-12-31T03:02:17.351Z,55.45
2023-12-31T03:04:44.332Z,55.46
2023-12-31T03:07:11.196Z,54.95
2023-12-31T03:09:37.969Z,55.58
2023-12-31T03:12:05.275Z,55.78
2023-12-31T03:14:32.036Z,55.21
2023-12-31T03:16:59.099Z,54.91
2023-12-31T03:19:25.878Z,55.19
2023-12-31T03:21:52.764Z,55.05
2023-12-31T03:24:23.630Z,53.91
2023-12-31T03:26:51.040Z,53.91
2023-12-31T03:29:17.955Z,53.56
2023-12-31T03:31:44.844Z,54.08
2023-12-31T03:34:11.888Z,53.58
2023-12-31T03:36:38.930Z,54.01
2023-12-31T03:39:06.231Z,53.52
2023-12-31T03:41:33.024Z,54.66
2023-12-31T03:44:01.189Z,53.88
2023-12-31T03:46:29.159Z,54.35
2023-12-31T03:48:56.017Z,53.90
2023-12-31T03:51:22.865Z,53.78
2023-12-31T03:53:49.585Z,53.78
2023-12-31T03:56:16.533Z,53.52
2023-12-31T03:58:43.507Z,54.13
2023-12-31T04:01:10.421Z,54.79
2023-12-31T04:03:40.249Z,53.78
2023-12-31T04:06:10.592Z,53.60
2023-12-31T04:08:37.727Z,53.33
2023-12-31T04:11:04.597Z,53.60
2023-12-31T04:13:31.488Z,53.25
2023-12-31T04:15:58.361Z,53.40
2023-12-31T04:18:25.458Z,53.17
2023-12-31T04:20:53.016Z,53.11
2023-12-31T04:23:19.849Z,52.92
2023-12-31T04:25:46.839Z,53.44
2023-12-31T04:28:13.861Z,53.24
2023-12-31T04:30:41.811Z,53.11
2023-12-31T04:33:08.813Z,54.22
2023-12-31T04:35:35.794Z,54.69
2023-12-31T04:38:03.754Z,54.26
2023-12-31T04:40:30.634Z,54.33
2023-12-31T04:42:57.467Z,54.00
2023-12-31T04:45:24.310Z,53.54
2023-12-31T04:47:51.203Z,53.56
2023-12-31T04:50:18.116Z,53.78
2023-12-31T04:52:45.040Z,53.95
2023-12-31T04:55:11.835Z,54.71
2023-12-31T04:57:38.694Z,54.48
2023-12-31T05:00:06.130Z,55.39
2023-12-31T05:02:32.928Z,55.31
2023-12-31T05:04:59.766Z,55.12
2023-12-31T05:07:26.605Z,55.73
2023-12-31T05:09:53.349Z,55.51
2023-12-31T05:12:20.191Z,55.53
2023-12-31T05:14:46.985Z,55.96
2023-12-31T05:17:14.157Z,56.46
2023-12-31T05:19:42.039Z,55.31
2023-12-31T05:22:08.974Z,55.66
2023-12-31T05:24:35.720Z,56.09
2023-12-31T05:27:02.513Z,55.61
2023-12-31T05:29:29.282Z,55.93
2023-12-31T05:31:56.178Z,56.43
2023-12-31T05:34:22.986Z,56.76
2023-12-31T05:36:49.771Z,56.41
2023-12-31T05:39:16.524Z,56.38
2023-12-31T05:41:43.305Z,56.51
2023-12-31T05:44:10.093Z,56.64
2023-12-31T05:46:36.884Z,57.00
2023-12-31T05:49:04.220Z,56.31
2023-12-31T05:51:31.081Z,57.47
2023-12-31T05:53:58.048Z,56.78
2023-12-31T05:56:24.872Z,56.11
2023-12-31T05:58:51.635Z,56.94
2023-12-31T06:01:20.549Z,56.33
2023-12-31T06:03:47.787Z,56.06
2023-12-31T06:06:14.806Z,56.97
2023-12-31T06:08:41.648Z,56.57
2023-12-31T06:11:10.318Z,57.10
2023-12-31T06:13:37.193Z,56.68
2023-12-31T06:16:04.202Z,56.90
2023-12-31T06:18:31.032Z,56.73
2023-12-31T06:20:57.846Z,57.13
2023-12-31T06:23:24.614Z,56.04
2023-12-31T06:25:51.433Z,56.24
2023-12-31T06:28:18.299Z,56.37
2023-12-31T06:30:45.158Z,56.05
2023-12-31T06:33:12.137Z,56.90
2023-12-31T06:35:39.109Z,56.44
2023-12-31T06:38:05.887Z,56.51
2023-12-31T06:40:32.669Z,56.90
2023-12-31T06:42:59.473Z,57.11
2023-12-31T06:45:26.219Z,56.95
2023-12-31T06:47:54.155Z,56.32
2023-12-31T06:50:20.969Z,56.74
2023-12-31T06:52:47.914Z,56.35
2023-12-31T06:55:14.825Z,56.00
2023-12-31T06:57:42.174Z,55.99
2023-12-31T07:00:09.474Z,56.57
2023-12-31T07:02:37.174Z,55.61
2023-12-31T07:05:04.515Z,56.20
2023-12-31T07:07:31.530Z,56.34
2023-12-31T07:09:58.302Z,56.55
2023-12-31T07:12:25.135Z,57.28
2023-12-31T07:14:51.901Z,57.33
2023-12-31T07:17:19.179Z,57.15
2023-12-31T07:19:56.409Z,56.73
2023-12-31T07:22:23.311Z,56.71
2023-12-31T07:24:50.060Z,57.99
2023-12-31T07:27:16.977Z,57.93
2023-12-31T07:29:43.814Z,57.00
2023-12-31T07:32:10.675Z,56.83
2023-12-31T07:34:37.510Z,57.30
2023-12-31T07:37:04.556Z,57.31
2023-12-31T07:39:32.862Z,57.44
2023-12-31T07:41:59.697Z,58.40
2023-12-31T07:44:26.501Z,59.23
2023-12-31T07:46:53.301Z,58.88
2023-12-31T07:49:20.185Z,58.40
2023-12-31T07:51:46.984Z,59.09
2023-12-31T07:54:13.810Z,58.71
2023-12-31T07:56:42.378Z,59.04
2023-12-31T07:59:09.676Z,57.70
2023-12-31T08:01:36.471Z,58.08
2023-12-31T08:04:03.790Z,58.10
2023-12-31T08:06:30.617Z,57.86
2023-12-31T08:08:57.505Z,56.79
2023-12-31T08:11:24.402Z,58.13
2023-12-31T08:13:51.336Z,59.10
2023-12-31T08:16:20.218Z,58.62
2023-12-31T08:18:47.319Z,59.21
2023-12-31T08:21:14.487Z,59.79
2023-12-31T08:23:41.830Z,59.99
2023-12-31T08:26:10.849Z,59.66
2023-12-31T08:28:37.952Z,59.00
2023-12-31T08:31:04.771Z,59.17
2023-12-31T08:33:31.662Z,59.04
2023-12-31T08:35:58.542Z,59.52
2023-12-31T08:38:25.304Z,59.59
2023-12-31T08:40:52.879Z,60.77
2023-12-31T08:43:19.751Z,61.30
2023-12-31T08:45:47.750Z,62.02
2023-12-31T08:48:14.755Z,62.40
2023-12-31T08:50:42.265Z,61.95
2023-12-31T08:53:09.372Z,62.92
2023-12-31T08:55:36.413Z,63.41
2023-12-31T08:58:03.371Z,62.89
2023-12-31T09:00:31.563Z,63.95
2023-12-31T09:02:58.506Z,63.14
2023-12-31T09:05:25.549Z,63.68
2023-12-31T09:07:52.513Z,63.50
2023-12-31T09:10:19.390Z,62.26
2023-12-31T09:12:46.216Z,62.20
2023-12-31T09:15:13.316Z,62.54
2023-12-31T09:17:40.418Z,62.88
2023-12-31T09:20:09.815Z,64.40
2023-12-31T09:22:36.995Z,63.61
2023-12-31T09:25:07.348Z,63.62
2023-12-31T09:27:34.240Z,63.81
2023-12-31T09:30:01.262Z,65.26
2023-12-31T09:32:28.157Z,68.65
2023-12-31T09:34:55.065Z,68.96
2023-12-31T09:37:22.125Z,68.35
2023-12-31T09:39:49.600Z,68.09
2023-12-31T09:42:20.902Z,67.26
2023-12-31T09:44:48.221Z,67.89
2023-12-31T09:47:15.572Z,67.30
2023-12-31T09:49:44.969Z,67.13
2023-12-31T09:52:11.770Z,65.73
2023-12-31T09:54:40.751Z,65.44
2023-12-31T09:57:11.262Z,64.77
2023-12-31T09:59:40.978Z,64.34
2023-12-31T10:02:09.509Z,63.87
2023-12-31T10:04:36.311Z,62.98
2023-12-31T10:07:04.134Z,62.39
2023-12-31T10:09:33.886Z,64.18
2023-12-31T10:12:04.322Z,62.25
2023-12-31T10:14:31.158Z,61.49
2023-12-31T10:16:58.193Z,61.61
2023-12-31T10:19:25.483Z,60.47
2023-12-31T10:21:52.605Z,60.71
2023-12-31T10:24:29.180Z,61.07
2023-12-31T10:27:04.573Z,60.92
2023-12-31T10:29:33.200Z,60.15
2023-12-31T10:32:00.288Z,61.34
2023-12-31T10:34:27.246Z,60.45
2023-12-31T10:37:07.459Z,61.00
2023-12-31T10:39:40.188Z,60.34
2023-12-31T10:42:08.146Z,61.15
2023-12-31T10:44:37.222Z,60.65
2023-12-31T10:47:08.884Z,60.10
2023-12-31T10:49:36.900Z,59.81
2023-12-31T10:52:05.862Z,59.42
2023-12-31T10:54:52.247Z,59.22
2023-12-31T10:57:23.098Z,58.38
2023-12-31T10:59:50.447Z,58.59
2023-12-31T11:02:19.621Z,58.54
2023-12-31T11:04:47.686Z,58.83
2023-12-31T11:07:20.105Z,58.36
2023-12-31T11:09:48.455Z,58.90
2023-12-31T11:12:16.406Z,58.38
2023-12-31T11:14:58.680Z,58.36
2023-12-31T11:17:53.551Z,58.79
2023-12-31T11:20:45.158Z,58.89
2023-12-31T11:23:20.188Z,60.07
2023-12-31T11:25:47.333Z,59.07
2023-12-31T11:28:14.372Z,59.84
2023-12-31T11:31:00.558Z,58.80
2023-12-31T11:33:39.639Z,59.25
2023-12-31T11:36:12.689Z,59.44
2023-12-31T11:38:52.314Z,58.31
2023-12-31T11:41:23.955Z,58.68
2023-12-31T11:43:53.711Z,59.32
2023-12-31T11:46:36.477Z,59.03
2023-12-31T11:49:03.690Z,58.33
2023-12-31T11:51:51.791Z,58.49
2023-12-31T11:54:23.224Z,57.84
2023-12-31T11:56:52.633Z,58.28
2023-12-31T11:59:19.564Z,57.34
2023-12-31T12:01:50.547Z,57.76
2023-12-31T12:04:19.494Z,57.00
2023-12-31T12:06:47.218Z,56.12
2023-12-31T12:09:14.092Z,56.88
2023-12-31T12:11:44.517Z,56.85
2023-12-31T12:14:12.032Z,56.67
2023-12-31T12:16:41.967Z,57.21
2023-12-31T12:19:09.036Z,56.68
2023-12-31T12:21:36.434Z,57.12
2023-12-31T12:24:05.642Z,56.21
2023-12-31T12:26:32.923Z,56.92
2023-12-31T12:28:59.867Z,56.90
2023-12-31T12:31:34.015Z,57.27
2023-12-31T12:34:00.890Z,56.17
2023-12-31T12:36:28.301Z,56.47
2023-12-31T12:39:00.705Z,56.62
2023-12-31T12:41:29.256Z,56.45
2023-12-31T12:44:07.055Z,56.15
2023-12-31T12:46:35.000Z,55.74
2023-12-31T12:49:05.140Z,56.10
2023-12-31T12:51:32.367Z,56.08
2023-12-31T12:54:00.886Z,56.51
2023-12-31T12:56:27.686Z,56.32
2023-12-31T12:58:54.841Z,54.92
2023-12-31T13:01:21.748Z,54.67
2023-12-31T13:03:48.727Z,55.88
2023-12-31T13:06:15.633Z,55.16
2023-12-31T13:08:42.469Z,55.50
2023-12-31T13:11:09.447Z,56.34
2023-12-31T13:13:36.271Z,56.15
2023-12-31T13:16:09.612Z,56.39
2023-12-31T13:18:42.992Z,55.45
2023-12-31T13:21:10.156Z,55.28
2023-12-31T13:23:37.492Z,55.29
2023-12-31T13:26:04.646Z,55.51
2023-12-31T13:28:31.565Z,55.67
2023-12-31T13:30:58.884Z,54.07
2023-12-31T13:33:26.697Z,54.94
2023-12-31T13:35:53.563Z,54.18
2023-12-31T13:38:24.285Z,53.84
2023-12-31T13:40:56.084Z,54.11
2023-12-31T13:43:23.554Z,54.88
2023-12-31T13:45:50.370Z,54.11
2023-12-31T13:48:19.089Z,54.34
2023-12-31T13:50:46.252Z,55.09
2023-12-31T13:53:14.907Z,53.92
2023-12-31T13:55:42.205Z,53.30
2023-12-31T13:58:10.249Z,52.92
2023-12-31T14:00:37.817Z,52.79
2023-12-31T14:03:08.057Z,52.32
2023-12-31T14:05:36.011Z,52.02
2023-12-31T14:08:03.552Z,52.12
2023-12-31T14:10:31.280Z,52.38
2023-12-31T14:12:58.918Z,51.64
2023-12-31T14:15:25.829Z,52.28
2023-12-31T14:17:54.207Z,51.81
2023-12-31T14:20:21.331Z,51.77
2023-12-31T14:22:48.344Z,51.95
2023-12-31T14:25:15.270Z,51.97
2023-12-31T14:27:42.096Z,51.29
2023-12-31T14:30:09.835Z,51.51
2023-12-31T14:32:37.005Z,50.95
2023-12-31T14:35:04.651Z,51.25
2023-12-31T14:37:31.579Z,51.07
2023-12-31T14:39:58.385Z,51.36
2023-12-31T14:42:25.124Z,52.40
2023-12-31T14:44:51.940Z,51.92
2023-12-31T14:47:19.358Z,52.10
2023-12-31T14:49:46.587Z,51.53
2023-12-31T14:52:13.689Z,51.75
2023-12-31T14:54:40.612Z,52.04
2023-12-31T14:57:07.453Z,52.59
2023-12-31T14:59:34.265Z,54.00
2023-12-31T15:02:01.398Z,52.91
2023-12-31T15:04:28.579Z,52.45
2023-12-31T15:06:55.481Z,53.08
2023-12-31T15:09:22.855Z,52.64
2023-12-31T15:11:50.599Z,52.60
2023-12-31T15:14:17.884Z,52.94
2023-12-31T15:16:45.294Z,53.66
2023-12-31T15:19:12.459Z,54.08
2023-12-31T15:21:39.411Z,53.75
2023-12-31T15:24:07.562Z,54.94
2023-12-31T15:26:34.788Z,54.00
2023-12-31T15:29:02.432Z,54.72
2023-12-31T15:31:30.153Z,54.40
2023-12-31T15:33:57.237Z,55.07
2023-12-31T15:36:24.544Z,55.51
2023-12-31T15:38:51.394Z,55.86
2023-12-31T15:41:18.959Z,55.74
2023-12-31T15:43:46.039Z,56.78
2023-12-31T15:46:12.918Z,57.12
2023-12-31T15:48:39.768Z,57.02
2023-12-31T15:51:11.622Z,57.57
2023-12-31T15:53:39.195Z,57.69
2023-12-31T15:56:06.731Z,58.67
2023-12-31T15:58:33.760Z,59.16
2023-12-31T16:01:00.758Z,59.95
2023-12-31T16:03:27.671Z,60.17
2023-12-31T16:05:54.613Z,59.56
2023-12-31T16:08:21.425Z,58.70
2023-12-31T16:10:49.466Z,59.48
2023-12-31T16:13:16.975Z,59.76
2023-12-31T16:15:43.833Z,59.99
2023-12-31T16:18:10.770Z,60.31
2023-12-31T16:20:37.762Z,59.74
2023-12-31T16:23:04.879Z,59.35
2023-12-31T16:25:31.952Z,59.46
2023-12-31T16:27:58.802Z,60.66
2023-12-31T16:30:25.800Z,59.58
2023-12-31T16:32:52.818Z,60.42
2023-12-31T16:35:19.727Z,59.99
2023-12-31T16:37:46.606Z,59.39
2023-12-31T16:40:13.640Z,58.85
2023-12-31T16:42:40.840Z,60.00
2023-12-31T16:45:11.681Z,58.82
2023-12-31T16:47:40.109Z,59.29
2023-12-31T16:50:11.105Z,59.46
2023-12-31T16:52:38.268Z,60.62
2023-12-31T16:55:05.906Z,61.59
2023-12-31T16:57:32.649Z,61.23
2023-12-31T16:59:59.559Z,60.80
2023-12-31T17:02:26.680Z,61.83
2023-12-31T17:04:53.634Z,61.02
2023-12-31T17:07:20.404Z,62.06
2023-12-31T17:09:47.214Z,61.47
2023-12-31T17:12:14.101Z,61.95
2023-12-31T17:14:41.160Z,62.09
2023-12-31T17:17:08.015Z,61.21
2023-12-31T17:19:35.183Z,62.32
2023-12-31T17:22:01.966Z,61.32
2023-12-31T17:24:28.736Z,63.27
2023-12-31T17:26:55.981Z,63.70
2023-12-31T17:29:23.895Z,64.20
2023-12-31T17:31:51.154Z,63.96
2023-12-31T17:34:18.071Z,63.51
2023-12-31T17:36:44.947Z,63.53
2023-12-31T17:39:11.788Z,63.78
2023-12-31T17:41:38.542Z,64.60
2023-12-31T17:44:05.426Z,63.51
2023-12-31T17:46:33.476Z,63.86
2023-12-31T17:49:00.522Z,65.38
2023-12-31T17:51:27.489Z,63.66
2023-12-31T17:53:54.295Z,63.93
2023-12-31T17:56:21.177Z,64.44
2023-12-31T17:58:48.800Z,63.78
2023-12-31T18:01:15.720Z,64.34
2023-12-31T18:03:44.053Z,65.29
2023-12-31T18:06:11.425Z,64.85
2023-12-31T18:08:38.250Z,64.01
2023-12-31T18:11:06.090Z,65.15
2023-12-31T18:13:32.936Z,64.76
2023-12-31T18:16:02.684Z,65.72
2023-12-31T18:18:30.973Z,66.24
2023-12-31T18:20:57.910Z,67.92
2023-12-31T18:23:24.708Z,67.38
2023-12-31T18:25:51.534Z,67.86
2023-12-31T18:28:18.396Z,67.70
2023-12-31T18:30:47.759Z,68.60
2023-12-31T18:33:17.860Z,67.58
2023-12-31T18:35:44.928Z,68.25
2023-12-31T18:38:11.911Z,67.75
2023-12-31T18:40:42.526Z,68.46
2023-12-31T18:43:09.301Z,68.00
2023-12-31T18:45:36.052Z,67.82
2023-12-31T18:48:03.083Z,67.06
2023-12-31T18:50:30.053Z,67.66
2023-12-31T18:52:56.861Z,66.79
2023-12-31T18:55:23.631Z,66.15
2023-12-31T18:57:50.555Z,66.40
2023-12-31T19:00:17.733Z,66.19
2023-12-31T19:02:44.662Z,66.91
2023-12-31T19:05:11.795Z,65.96
2023-12-31T19:07:38.740Z,65.17
2023-12-31T19:10:06.232Z,65.03
2023-12-31T19:12:32.989Z,65.73
2023-12-31T19:15:00.800Z,64.98
2023-12-31T19:17:27.804Z,64.21
2023-12-31T19:19:54.813Z,64.58
2023-12-31T19:22:22.986Z,63.97
2023-12-31T19:24:50.587Z,63.98
2023-12-31T19:27:17.353Z,64.85
2023-12-31T19:29:44.591Z,64.43
2023-12-31T19:32:11.413Z,64.15
2023-12-31T19:34:41.584Z,63.99
2023-12-31T19:37:08.556Z,63.65
2023-12-31T19:39:37.792Z,63.36
2023-12-31T19:42:05.258Z,63.95
2023-12-31T19:44:36.145Z,63.74
2023-12-31T19:47:05.292Z,63.80
2023-12-31T19:49:32.321Z,63.84
2023-12-31T19:52:00.499Z,63.85
2023-12-31T19:54:27.614Z,64.16
2023-12-31T19:56:54.454Z,63.67
2023-12-31T19:59:21.273Z,63.17
2023-12-31T20:01:48.210Z,63.69
2023-12-31T20:04:15.028Z,63.93
2023-12-31T20:06:41.940Z,63.19
2023-12-31T20:09:09.132Z,62.93
2023-12-31T20:11:35.987Z,62.75
2023-12-31T20:14:03.282Z,62.38
2023-12-31T20:16:30.220Z,62.72
2023-12-31T20:18:57.160Z,62.88
2023-12-31T20:21:24.094Z,62.79
2023-12-31T20:23:52.026Z,62.68
2023-12-31T20:26:19.091Z,63.54
2023-12-31T20:28:45.949Z,62.04
2023-12-31T20:31:12.855Z,61.78
2023-12-31T20:33:39.860Z,61.86
2023-12-31T20:36:09.762Z,62.17
2023-12-31T20:38:38.431Z,62.17
2023-12-31T20:41:06.199Z,61.47
2023-12-31T20:43:33.680Z,61.70
2023-12-31T20:46:00.703Z,61.98
2023-12-31T20:48:27.702Z,62.20
2023-12-31T20:50:54.595Z,62.08
2023-12-31T20:53:22.115Z,62.25
2023-12-31T20:55:49.643Z,61.61
2023-12-31T20:58:17.777Z,61.71
2023-12-31T21:00:45.419Z,61.52
2023-12-31T21:03:12.992Z,61.87
2023-12-31T21:05:40.654Z,61.37
2023-12-31T21:08:08.016Z,62.23
2023-12-31T21:10:36.178Z,61.67
2023-12-31T21:13:03.537Z,61.15
2023-12-31T21:15:32.593Z,61.06
2023-12-31T21:17:59.505Z,61.04
2023-12-31T21:20:26.329Z,62.13
2023-12-31T21:22:55.299Z,62.25
2023-12-31T21:25:23.149Z,62.12
2023-12-31T21:27:49.990Z,62.02
2023-12-31T21:30:17.152Z,61.46
2023-12-31T21:32:44.073Z,61.74
2023-12-31T21:35:11.114Z,61.38
2023-12-31T21:37:38.045Z,60.29
2023-12-31T21:40:05.463Z,60.91
2023-12-31T21:42:32.265Z,59.94
2023-12-31T21:44:59.022Z,59.90
2023-12-31T21:47:25.817Z,60.37
2023-12-31T21:49:52.661Z,60.34
2023-12-31T21:52:19.638Z,60.59
2023-12-31T21:54:46.430Z,59.73
2023-12-31T21:57:15.477Z,59.71
2023-12-31T21:59:50.788Z,59.57
2023-12-31T22:02:17.584Z,59.16
2023-12-31T22:04:44.346Z,59.01
2023-12-31T22:07:11.356Z,59.03
2023-12-31T22:09:38.394Z,59.02
2023-12-31T22:12:05.686Z,59.09
2023-12-31T22:14:32.528Z,59.38
2023-12-31T22:17:01.337Z,59.36
2023-12-31T22:19:28.634Z,59.89
2023-12-31T22:21:55.548Z,58.58
2023-12-31T22:24:23.574Z,59.18
2023-12-31T22:26:50.769Z,59.00
2023-12-31T22:29:18.069Z,59.10
2023-12-31T22:31:44.923Z,59.64
2023-12-31T22:34:11.765Z,59.49
2023-12-31T22:36:38.680Z,58.53
2023-12-31T22:39:05.533Z,59.13
2023-12-31T22:41:32.333Z,60.00
2023-12-31T22:43:59.157Z,59.49
2023-12-31T22:46:29.910Z,59.76
2023-12-31T22:48:56.786Z,58.96
2023-12-31T22:51:23.636Z,58.50
2023-12-31T22:53:50.466Z,58.64
2023-12-31T22:56:17.277Z,59.36
2023-12-31T22:58:44.139Z,58.84
2023-12-31T23:01:11.206Z,59.92
2023-12-31T23:03:37.961Z,58.65
2023-12-31T23:06:04.982Z,59.14
2023-12-31T23:08:32.686Z,60.06
2023-12-31T23:10:59.580Z,58.88
2023-12-31T23:13:26.355Z,59.50
2023-12-31T23:15:53.124Z,59.07
2023-12-31T23:18:20.042Z,58.81
2023-12-31T23:20:46.844Z,58.84
2023-12-31T23:23:13.677Z,59.54
2023-12-31T23:25:40.578Z,59.26
2023-12-31T23:28:07.566Z,57.89
2023-12-31T23:30:34.493Z,59.02
2023-12-31T23:33:01.449Z,59.04
2023-12-31T23:35:28.212Z,59.28
2023-12-31T23:37:55.005Z,58.83
2023-12-31T23:40:21.994Z,58.42
2023-12-31T23:42:48.950Z,58.95
2023-12-31T23:45:15.918Z,59.31
2023-12-31T23:47:42.817Z,59.40
2023-12-31T23:50:09.784Z,59.69
2023-12-31T23:52:38.177Z,59.17
2023-12-31T23:55:05.519Z,58.07
2023-12-31T23:57:32.401Z,57.90
2023-12-31T23:59:59.157Z,58.31
